sensor_id;sensor_type;location;lat;lon;timestamp;temperature;humidity
20524;DHT22;10420;48.542;12.270;2023-02-12T00:03:19;3.80;99.90
20524;DHT22;10420;48.542;12.270;2023-02-12T00:08:20;3.80;99.90
20524;DHT22;10420;48.542;12.270;2023-02-12T00:13:20;3.80;99.90
20524;DHT22;10420;48.542;12.270;2023-02-12T00:18:21;3.80;99.90
20524;DHT22;10420;48.542;12.270;2023-02-12T00:23:22;3.70;99.90
20524;DHT22;10420;48.542;12.270;2023-02-12T00:28:23;3.70;99.90
20524;DHT22;10420;48.542;12.270;2023-02-12T00:33:23;3.70;99.90
20524;DHT22;10420;48.542;12.270;2023-02-12T00:38:24;3.50;99.90
20524;DHT22;10420;48.542;12.270;2023-02-12T00:43:25;3.50;99.90
20524;DHT22;10420;48.542;12.270;2023-02-12T00:48:25;3.50;99.90
20524;DHT22;10420;48.542;12.270;2023-02-12T00:53:26;3.50;99.90
20524;DHT22;10420;48.542;12.270;2023-02-12T00:58:27;3.60;99.90
20524;DHT22;10420;48.542;12.270;2023-02-12T01:03:28;3.60;99.90
20524;DHT22;10420;48.542;12.270;2023-02-12T01:08:29;3.60;99.90
20524;DHT22;10420;48.542;12.270;2023-02-12T01:13:31;3.70;99.90
20524;DHT22;10420;48.542;12.270;2023-02-12T01:18:32;3.70;99.90
20524;DHT22;10420;48.542;12.270;2023-02-12T01:23:33;3.70;99.90
20524;DHT22;10420;48.542;12.270;2023-02-12T01:28:34;3.70;99.90
20524;DHT22;10420;48.542;12.270;2023-02-12T01:33:34;3.70;99.90
20524;DHT22;10420;48.542;12.270;2023-02-12T01:38:35;3.80;99.90
20524;DHT22;10420;48.542;12.270;2023-02-12T01:43:36;3.60;99.90
20524;DHT22;10420;48.542;12.270;2023-02-12T01:48:47;3.50;99.90
20524;DHT22;10420;48.542;12.270;2023-02-12T01:53:50;3.70;99.90
20524;DHT22;10420;48.542;12.270;2023-02-12T01:58:53;3.70;99.90
20524;DHT22;10420;48.542;12.270;2023-02-12T02:04:01;3.70;99.90
20524;DHT22;10420;48.542;12.270;2023-02-12T02:09:03;3.70;99.90
20524;DHT22;10420;48.542;12.270;2023-02-12T02:14:04;3.70;99.90
20524;DHT22;10420;48.542;12.270;2023-02-12T02:30:37;3.60;99.90
20524;DHT22;10420;48.542;12.270;2023-02-12T02:41:07;3.70;99.90
20524;DHT22;10420;48.542;12.270;2023-02-12T02:47:00;3.70;99.90
20524;DHT22;10420;48.542;12.270;2023-02-12T02:51:40;3.70;99.90
20524;DHT22;10420;48.542;12.270;2023-02-12T02:56:44;3.60;99.90
20524;DHT22;10420;48.542;12.270;2023-02-12T03:01:52;3.60;99.90
20524;DHT22;10420;48.542;12.270;2023-02-12T03:12:02;3.50;99.90
20524;DHT22;10420;48.542;12.270;2023-02-12T03:17:12;3.50;99.90
20524;DHT22;10420;48.542;12.270;2023-02-12T03:22:41;3.30;99.90
20524;DHT22;10420;48.542;12.270;2023-02-12T03:28:15;3.30;99.90
20524;DHT22;10420;48.542;12.270;2023-02-12T03:33:59;3.30;99.90
20524;DHT22;10420;48.542;12.270;2023-02-12T03:39:32;3.30;99.90
20524;DHT22;10420;48.542;12.270;2023-02-12T03:50:14;3.30;99.90
20524;DHT22;10420;48.542;12.270;2023-02-12T03:55:16;3.30;99.90
20524;DHT22;10420;48.542;12.270;2023-02-12T04:00:21;3.30;99.90
20524;DHT22;10420;48.542;12.270;2023-02-12T04:05:24;3.30;99.90
20524;DHT22;10420;48.542;12.270;2023-02-12T04:20:56;3.30;99.90
20524;DHT22;10420;48.542;12.270;2023-02-12T04:32:03;3.30;99.90
20524;DHT22;10420;48.542;12.270;2023-02-12T04:42:07;3.20;99.90
20524;DHT22;10420;48.542;12.270;2023-02-12T04:47:12;3.10;99.90
20524;DHT22;10420;48.542;12.270;2023-02-12T04:52:14;3.10;99.90
20524;DHT22;10420;48.542;12.270;2023-02-12T04:57:14;3.20;99.90
20524;DHT22;10420;48.542;12.270;2023-02-12T05:02:15;3.20;99.90
20524;DHT22;10420;48.542;12.270;2023-02-12T05:07:16;3.20;99.90
20524;DHT22;10420;48.542;12.270;2023-02-12T05:12:16;3.20;99.90
20524;DHT22;10420;48.542;12.270;2023-02-12T05:17:17;3.20;99.90
20524;DHT22;10420;48.542;12.270;2023-02-12T05:22:18;3.20;99.90
20524;DHT22;10420;48.542;12.270;2023-02-12T05:27:18;3.20;99.90
20524;DHT22;10420;48.542;12.270;2023-02-12T05:32:19;3.10;99.90
20524;DHT22;10420;48.542;12.270;2023-02-12T05:37:19;3.10;99.90
20524;DHT22;10420;48.542;12.270;2023-02-12T05:42:20;3.20;99.90
20524;DHT22;10420;48.542;12.270;2023-02-12T05:47:21;3.20;99.90
20524;DHT22;10420;48.542;12.270;2023-02-12T05:52:21;3.20;99.90
20524;DHT22;10420;48.542;12.270;2023-02-12T05:57:22;3.20;99.90
20524;DHT22;10420;48.542;12.270;2023-02-12T06:02:23;3.20;99.90
20524;DHT22;10420;48.542;12.270;2023-02-12T06:07:23;3.20;99.90
20524;DHT22;10420;48.542;12.270;2023-02-12T06:12:24;3.20;99.90
20524;DHT22;10420;48.542;12.270;2023-02-12T06:17:24;3.20;99.90
20524;DHT22;10420;48.542;12.270;2023-02-12T06:22:27;3.20;99.90
20524;DHT22;10420;48.542;12.270;2023-02-12T06:27:27;3.10;99.90
20524;DHT22;10420;48.542;12.270;2023-02-12T06:32:28;3.20;99.90
20524;DHT22;10420;48.542;12.270;2023-02-12T06:37:29;3.20;99.90
20524;DHT22;10420;48.542;12.270;2023-02-12T06:42:29;3.20;99.90
20524;DHT22;10420;48.542;12.270;2023-02-12T06:47:30;3.20;99.90
20524;DHT22;10420;48.542;12.270;2023-02-12T06:52:31;3.10;99.90
20524;DHT22;10420;48.542;12.270;2023-02-12T06:57:31;3.00;99.90
20524;DHT22;10420;48.542;12.270;2023-02-12T07:02:32;3.00;99.90
20524;DHT22;10420;48.542;12.270;2023-02-12T07:07:32;3.10;99.90
20524;DHT22;10420;48.542;12.270;2023-02-12T07:12:33;3.20;99.90
20524;DHT22;10420;48.542;12.270;2023-02-12T07:17:34;3.20;99.90
20524;DHT22;10420;48.542;12.270;2023-02-12T07:22:35;3.20;99.90
20524;DHT22;10420;48.542;12.270;2023-02-12T07:27:37;3.20;99.90
20524;DHT22;10420;48.542;12.270;2023-02-12T07:32:38;3.40;99.90
20524;DHT22;10420;48.542;12.270;2023-02-12T07:37:38;3.50;99.90
20524;DHT22;10420;48.542;12.270;2023-02-12T07:42:39;3.70;99.90
20524;DHT22;10420;48.542;12.270;2023-02-12T07:47:40;3.80;99.90
20524;DHT22;10420;48.542;12.270;2023-02-12T07:52:40;3.90;99.90
20524;DHT22;10420;48.542;12.270;2023-02-12T07:57:41;4.00;99.90
20524;DHT22;10420;48.542;12.270;2023-02-12T08:02:42;4.20;99.90
20524;DHT22;10420;48.542;12.270;2023-02-12T08:07:42;4.20;99.90
20524;DHT22;10420;48.542;12.270;2023-02-12T08:12:43;4.20;99.90
20524;DHT22;10420;48.542;12.270;2023-02-12T08:17:43;4.20;99.90
20524;DHT22;10420;48.542;12.270;2023-02-12T08:22:44;4.20;99.90
20524;DHT22;10420;48.542;12.270;2023-02-12T08:27:45;4.30;99.90
20524;DHT22;10420;48.542;12.270;2023-02-12T08:32:48;4.30;99.90
20524;DHT22;10420;48.542;12.270;2023-02-12T08:37:49;4.20;99.90
20524;DHT22;10420;48.542;12.270;2023-02-12T08:42:51;4.20;99.90
20524;DHT22;10420;48.542;12.270;2023-02-12T08:47:52;4.30;99.90
20524;DHT22;10420;48.542;12.270;2023-02-12T08:52:52;4.40;99.90
20524;DHT22;10420;48.542;12.270;2023-02-12T08:57:53;4.50;99.90
20524;DHT22;10420;48.542;12.270;2023-02-12T09:02:57;4.50;99.90
20524;DHT22;10420;48.542;12.270;2023-02-12T09:07:57;4.50;99.90
20524;DHT22;10420;48.542;12.270;2023-02-12T09:12:58;4.60;99.90
20524;DHT22;10420;48.542;12.270;2023-02-12T09:17:59;4.70;99.90
20524;DHT22;10420;48.542;12.270;2023-02-12T09:23:03;4.80;99.90
20524;DHT22;10420;48.542;12.270;2023-02-12T09:28:04;5.00;99.90
20524;DHT22;10420;48.542;12.270;2023-02-12T09:33:05;5.00;99.90
20524;DHT22;10420;48.542;12.270;2023-02-12T09:38:06;5.00;99.90
20524;DHT22;10420;48.542;12.270;2023-02-12T09:53:43;5.00;99.90
20524;DHT22;10420;48.542;12.270;2023-02-12T09:58:55;5.20;99.90
20524;DHT22;10420;48.542;12.270;2023-02-12T10:03:57;5.40;99.90
20524;DHT22;10420;48.542;12.270;2023-02-12T10:30:58;4.90;99.90
20524;DHT22;10420;48.542;12.270;2023-02-12T10:36:10;4.90;99.90
20524;DHT22;10420;48.542;12.270;2023-02-12T10:41:16;5.00;99.90
20524;DHT22;10420;48.542;12.270;2023-02-12T10:46:17;5.10;99.90
20524;DHT22;10420;48.542;12.270;2023-02-12T10:56:36;5.60;99.90
20524;DHT22;10420;48.542;12.270;2023-02-12T11:01:37;5.60;99.90
20524;DHT22;10420;48.542;12.270;2023-02-12T11:06:38;5.80;99.90
20524;DHT22;10420;48.542;12.270;2023-02-12T11:11:39;5.80;99.90
20524;DHT22;10420;48.542;12.270;2023-02-12T11:16:59;5.90;99.90
20524;DHT22;10420;48.542;12.270;2023-02-12T11:22:10;5.90;99.90
20524;DHT22;10420;48.542;12.270;2023-02-12T11:27:25;6.10;99.90
20524;DHT22;10420;48.542;12.270;2023-02-12T11:32:28;6.40;99.90
20524;DHT22;10420;48.542;12.270;2023-02-12T11:37:32;6.50;99.90
20524;DHT22;10420;48.542;12.270;2023-02-12T11:42:34;6.90;99.90
20524;DHT22;10420;48.542;12.270;2023-02-12T11:47:39;6.90;99.90
20524;DHT22;10420;48.542;12.270;2023-02-12T11:52:40;6.70;99.90
20524;DHT22;10420;48.542;12.270;2023-02-12T11:57:50;6.50;99.90
20524;DHT22;10420;48.542;12.270;2023-02-12T12:03:11;6.50;99.90
20524;DHT22;10420;48.542;12.270;2023-02-12T12:08:27;6.40;99.90
20524;DHT22;10420;48.542;12.270;2023-02-12T12:13:38;6.20;99.90
20524;DHT22;10420;48.542;12.270;2023-02-12T12:18:51;5.80;99.90
20524;DHT22;10420;48.542;12.270;2023-02-12T12:24:19;5.70;99.90
20524;DHT22;10420;48.542;12.270;2023-02-12T12:29:26;5.90;99.90
20524;DHT22;10420;48.542;12.270;2023-02-12T12:34:29;5.80;99.90
20524;DHT22;10420;48.542;12.270;2023-02-12T13:07:06;6.00;99.90
20524;DHT22;10420;48.542;12.270;2023-02-12T13:17:32;6.10;99.90
20524;DHT22;10420;48.542;12.270;2023-02-12T13:22:40;6.20;99.90
20524;DHT22;10420;48.542;12.270;2023-02-12T13:27:43;6.00;99.90
20524;DHT22;10420;48.542;12.270;2023-02-12T13:38:06;5.70;99.90
20524;DHT22;10420;48.542;12.270;2023-02-12T14:04:36;5.90;99.90
20524;DHT22;10420;48.542;12.270;2023-02-12T14:09:44;6.10;99.90
20524;DHT22;10420;48.542;12.270;2023-02-12T14:14:47;6.10;99.90
20524;DHT22;10420;48.542;12.270;2023-02-12T14:24:52;6.10;99.90
20524;DHT22;10420;48.542;12.270;2023-02-12T14:30:30;5.90;99.90
20524;DHT22;10420;48.542;12.270;2023-02-12T14:35:36;6.10;99.90
20524;DHT22;10420;48.542;12.270;2023-02-12T14:40:40;6.20;99.90
20524;DHT22;10420;48.542;12.270;2023-02-12T14:45:43;6.10;99.90
20524;DHT22;10420;48.542;12.270;2023-02-12T14:50:44;6.10;99.90
20524;DHT22;10420;48.542;12.270;2023-02-12T14:55:50;6.10;99.90
20524;DHT22;10420;48.542;12.270;2023-02-12T15:00:54;6.10;99.90
20524;DHT22;10420;48.542;12.270;2023-02-12T15:06:03;6.10;99.90
20524;DHT22;10420;48.542;12.270;2023-02-12T15:11:15;5.60;99.90
20524;DHT22;10420;48.542;12.270;2023-02-12T15:16:57;5.50;99.90
20524;DHT22;10420;48.542;12.270;2023-02-12T15:21:50;5.60;99.90
20524;DHT22;10420;48.542;12.270;2023-02-12T15:26:56;5.60;99.90
20524;DHT22;10420;48.542;12.270;2023-02-12T15:32:00;5.50;99.90
20524;DHT22;10420;48.542;12.270;2023-02-12T15:37:02;5.30;99.90
20524;DHT22;10420;48.542;12.270;2023-02-12T15:42:04;5.00;99.90
20524;DHT22;10420;48.542;12.270;2023-02-12T15:52:15;4.80;99.90
20524;DHT22;10420;48.542;12.270;2023-02-12T15:57:24;4.60;99.90
20524;DHT22;10420;48.542;12.270;2023-02-12T16:02:27;4.40;99.90
20524;DHT22;10420;48.542;12.270;2023-02-12T16:07:31;4.10;99.90
20524;DHT22;10420;48.542;12.270;2023-02-12T16:12:34;3.70;99.90
20524;DHT22;10420;48.542;12.270;2023-02-12T16:17:45;3.70;99.90
20524;DHT22;10420;48.542;12.270;2023-02-12T16:22:48;3.50;99.90
20524;DHT22;10420;48.542;12.270;2023-02-12T16:28:01;3.20;99.90
20524;DHT22;10420;48.542;12.270;2023-02-12T16:33:02;2.90;99.90
20524;DHT22;10420;48.542;12.270;2023-02-12T16:43:25;2.70;99.90
20524;DHT22;10420;48.542;12.270;2023-02-12T16:48:26;2.40;99.90
20524;DHT22;10420;48.542;12.270;2023-02-12T16:53:36;2.30;99.90
20524;DHT22;10420;48.542;12.270;2023-02-12T16:58:54;2.10;99.90
20524;DHT22;10420;48.542;12.270;2023-02-12T17:03:57;1.90;99.90
20524;DHT22;10420;48.542;12.270;2023-02-12T17:08:58;1.80;99.90
20524;DHT22;10420;48.542;12.270;2023-02-12T17:13:59;1.70;99.90
20524;DHT22;10420;48.542;12.270;2023-02-12T17:19:00;1.50;99.90
20524;DHT22;10420;48.542;12.270;2023-02-12T17:24:00;1.30;99.90
20524;DHT22;10420;48.542;12.270;2023-02-12T17:29:01;1.40;99.90
20524;DHT22;10420;48.542;12.270;2023-02-12T17:34:04;1.30;99.90
20524;DHT22;10420;48.542;12.270;2023-02-12T17:39:07;1.20;99.90
20524;DHT22;10420;48.542;12.270;2023-02-12T17:44:08;1.10;99.90
20524;DHT22;10420;48.542;12.270;2023-02-12T17:49:09;1.00;99.90
20524;DHT22;10420;48.542;12.270;2023-02-12T17:54:10;0.90;99.90
20524;DHT22;10420;48.542;12.270;2023-02-12T17:59:11;0.90;99.90
20524;DHT22;10420;48.542;12.270;2023-02-12T18:04:13;0.80;99.90
20524;DHT22;10420;48.542;12.270;2023-02-12T18:09:13;0.70;99.90
20524;DHT22;10420;48.542;12.270;2023-02-12T18:14:14;0.60;99.90
20524;DHT22;10420;48.542;12.270;2023-02-12T18:19:15;0.50;99.90
20524;DHT22;10420;48.542;12.270;2023-02-12T18:24:16;0.50;99.90
20524;DHT22;10420;48.542;12.270;2023-02-12T18:29:16;0.50;99.90
20524;DHT22;10420;48.542;12.270;2023-02-12T18:34:17;0.40;99.90
20524;DHT22;10420;48.542;12.270;2023-02-12T18:39:19;0.70;99.90
20524;DHT22;10420;48.542;12.270;2023-02-12T18:44:19;1.40;99.90
20524;DHT22;10420;48.542;12.270;2023-02-12T18:49:20;1.60;99.90
20524;DHT22;10420;48.542;12.270;2023-02-12T18:54:21;1.60;99.90
20524;DHT22;10420;48.542;12.270;2023-02-12T18:59:22;1.80;99.90
20524;DHT22;10420;48.542;12.270;2023-02-12T19:04:23;1.60;99.90
20524;DHT22;10420;48.542;12.270;2023-02-12T19:09:25;1.60;99.90
20524;DHT22;10420;48.542;12.270;2023-02-12T19:14:26;1.70;99.90
20524;DHT22;10420;48.542;12.270;2023-02-12T19:19:27;1.60;99.90
20524;DHT22;10420;48.542;12.270;2023-02-12T19:24:28;1.50;99.90
20524;DHT22;10420;48.542;12.270;2023-02-12T19:29:30;1.40;99.90
20524;DHT22;10420;48.542;12.270;2023-02-12T19:34:30;1.40;99.90
20524;DHT22;10420;48.542;12.270;2023-02-12T19:39:31;1.40;99.90
20524;DHT22;10420;48.542;12.270;2023-02-12T19:44:32;1.40;99.90
20524;DHT22;10420;48.542;12.270;2023-02-12T19:49:32;1.40;99.90
20524;DHT22;10420;48.542;12.270;2023-02-12T19:54:33;1.20;99.90
20524;DHT22;10420;48.542;12.270;2023-02-12T19:59:34;1.30;99.90
20524;DHT22;10420;48.542;12.270;2023-02-12T20:04:35;1.30;99.90
20524;DHT22;10420;48.542;12.270;2023-02-12T20:09:36;1.20;99.90
20524;DHT22;10420;48.542;12.270;2023-02-12T20:14:37;1.10;99.90
20524;DHT22;10420;48.542;12.270;2023-02-12T20:19:37;1.20;99.90
20524;DHT22;10420;48.542;12.270;2023-02-12T20:24:38;1.30;99.90
20524;DHT22;10420;48.542;12.270;2023-02-12T20:29:38;1.20;99.90
20524;DHT22;10420;48.542;12.270;2023-02-12T20:34:39;1.30;99.90
20524;DHT22;10420;48.542;12.270;2023-02-12T20:39:40;1.20;99.90
20524;DHT22;10420;48.542;12.270;2023-02-12T20:44:41;1.20;99.90
20524;DHT22;10420;48.542;12.270;2023-02-12T20:49:41;1.30;99.90
20524;DHT22;10420;48.542;12.270;2023-02-12T20:54:42;1.30;99.90
20524;DHT22;10420;48.542;12.270;2023-02-12T20:59:42;1.30;99.90
20524;DHT22;10420;48.542;12.270;2023-02-12T21:04:43;1.40;99.90
20524;DHT22;10420;48.542;12.270;2023-02-12T21:09:44;1.60;99.90
20524;DHT22;10420;48.542;12.270;2023-02-12T21:14:45;1.50;99.90
20524;DHT22;10420;48.542;12.270;2023-02-12T21:19:45;1.40;99.90
20524;DHT22;10420;48.542;12.270;2023-02-12T21:24:46;1.50;99.90
20524;DHT22;10420;48.542;12.270;2023-02-12T21:29:46;1.30;99.90
20524;DHT22;10420;48.542;12.270;2023-02-12T21:34:47;1.30;99.90
20524;DHT22;10420;48.542;12.270;2023-02-12T21:39:48;1.20;99.90
20524;DHT22;10420;48.542;12.270;2023-02-12T21:44:48;1.10;99.90
20524;DHT22;10420;48.542;12.270;2023-02-12T21:49:49;1.10;99.90
20524;DHT22;10420;48.542;12.270;2023-02-12T21:54:49;1.00;99.90
20524;DHT22;10420;48.542;12.270;2023-02-12T21:59:51;1.10;99.90
20524;DHT22;10420;48.542;12.270;2023-02-12T22:04:53;1.00;99.90
20524;DHT22;10420;48.542;12.270;2023-02-12T22:09:56;1.10;99.90
20524;DHT22;10420;48.542;12.270;2023-02-12T22:14:57;1.00;99.90
20524;DHT22;10420;48.542;12.270;2023-02-12T22:19:58;1.00;99.90
20524;DHT22;10420;48.542;12.270;2023-02-12T22:24:59;0.90;99.90
20524;DHT22;10420;48.542;12.270;2023-02-12T22:30:00;0.80;99.90
20524;DHT22;10420;48.542;12.270;2023-02-12T22:35:00;0.90;99.90
20524;DHT22;10420;48.542;12.270;2023-02-12T22:40:01;0.90;99.90
20524;DHT22;10420;48.542;12.270;2023-02-12T22:45:02;0.90;99.90
20524;DHT22;10420;48.542;12.270;2023-02-12T22:50:02;0.80;99.90
20524;DHT22;10420;48.542;12.270;2023-02-12T22:55:04;0.80;99.90
20524;DHT22;10420;48.542;12.270;2023-02-12T23:00:05;0.90;99.90
20524;DHT22;10420;48.542;12.270;2023-02-12T23:05:06;0.90;99.90
20524;DHT22;10420;48.542;12.270;2023-02-12T23:10:07;1.00;99.90
20524;DHT22;10420;48.542;12.270;2023-02-12T23:15:08;0.80;99.90
20524;DHT22;10420;48.542;12.270;2023-02-12T23:20:10;0.80;99.90
20524;DHT22;10420;48.542;12.270;2023-02-12T23:25:10;0.80;99.90
20524;DHT22;10420;48.542;12.270;2023-02-12T23:30:11;0.90;99.90
20524;DHT22;10420;48.542;12.270;2023-02-12T23:35:12;0.80;99.90
20524;DHT22;10420;48.542;12.270;2023-02-12T23:40:13;0.80;99.90
20524;DHT22;10420;48.542;12.270;2023-02-12T23:45:14;0.90;99.90
20524;DHT22;10420;48.542;12.270;2023-02-12T23:50:14;0.80;99.90
20524;DHT22;10420;48.542;12.270;2023-02-12T23:55:15;0.80;99.90
